sensor_id;sensor_type;location;lat;lon;timestamp;P1;durP1;ratioP1;P2;durP2;ratioP2
48777;SDS011;34578;0.000;0.000;2022-12-16T00:00:11;8.43;;;5.90;;
48777;SDS011;34578;0.000;0.000;2022-12-16T00:05:13;9.25;;;6.63;;
48777;SDS011;34578;0.000;0.000;2022-12-16T00:10:14;10.15;;;7.05;;
48777;SDS011;34578;0.000;0.000;2022-12-16T00:15:14;7.78;;;6.05;;
48777;SDS011;34578;0.000;0.000;2022-12-16T00:20:15;10.02;;;7.00;;
48777;SDS011;34578;0.000;0.000;2022-12-16T00:25:15;13.73;;;6.83;;
48777;SDS011;34578;0.000;0.000;2022-12-16T00:30:16;7.97;;;5.50;;
48777;SDS011;34578;0.000;0.000;2022-12-16T00:35:16;9.85;;;6.57;;
48777;SDS011;34578;0.000;0.000;2022-12-16T00:40:16;8.13;;;5.60;;
48777;SDS011;34578;0.000;0.000;2022-12-16T00:45:17;10.63;;;6.33;;
48777;SDS011;34578;0.000;0.000;2022-12-16T00:50:18;10.43;;;5.80;;
48777;SDS011;34578;0.000;0.000;2022-12-16T00:55:19;10.00;;;5.97;;
48777;SDS011;34578;0.000;0.000;2022-12-16T01:00:20;9.75;;;6.00;;
48777;SDS011;34578;0.000;0.000;2022-12-16T01:05:21;7.63;;;5.85;;
48777;SDS011;34578;0.000;0.000;2022-12-16T01:10:25;8.80;;;5.75;;
48777;SDS011;34578;0.000;0.000;2022-12-16T01:15:26;10.60;;;5.60;;
48777;SDS011;34578;0.000;0.000;2022-12-16T01:20:26;8.70;;;5.40;;
48777;SDS011;34578;0.000;0.000;2022-12-16T01:25:26;7.37;;;5.83;;
48777;SDS011;34578;0.000;0.000;2022-12-16T01:30:28;9.00;;;6.03;;
48777;SDS011;34578;0.000;0.000;2022-12-16T01:35:28;7.80;;;5.72;;
48777;SDS011;34578;0.000;0.000;2022-12-16T01:40:29;8.10;;;5.73;;
48777;SDS011;34578;0.000;0.000;2022-12-16T01:45:31;7.80;;;5.50;;
48777;SDS011;34578;0.000;0.000;2022-12-16T01:50:33;9.38;;;6.50;;
48777;SDS011;34578;0.000;0.000;2022-12-16T01:55:35;8.43;;;6.15;;
48777;SDS011;34578;0.000;0.000;2022-12-16T02:00:39;12.48;;;5.05;;
48777;SDS011;34578;0.000;0.000;2022-12-16T02:05:40;8.30;;;5.18;;
48777;SDS011;34578;0.000;0.000;2022-12-16T02:32:22;6.65;;;4.90;;
48777;SDS011;34578;0.000;0.000;2022-12-16T02:37:40;7.75;;;5.53;;
48777;SDS011;34578;0.000;0.000;2022-12-16T02:42:48;6.53;;;5.32;;
48777;SDS011;34578;0.000;0.000;2022-12-16T02:47:55;8.18;;;4.65;;
48777;SDS011;34578;0.000;0.000;2022-12-16T02:52:56;9.95;;;5.75;;
48777;SDS011;34578;0.000;0.000;2022-12-16T02:58:13;12.32;;;5.70;;
48777;SDS011;34578;0.000;0.000;2022-12-16T03:03:22;7.85;;;6.18;;
48777;SDS011;34578;0.000;0.000;2022-12-16T03:08:33;8.05;;;4.90;;
48777;SDS011;34578;0.000;0.000;2022-12-16T03:13:40;7.45;;;5.65;;
48777;SDS011;34578;0.000;0.000;2022-12-16T03:23:53;6.40;;;5.15;;
48777;SDS011;34578;0.000;0.000;2022-12-16T03:29:01;7.47;;;4.75;;
48777;SDS011;34578;0.000;0.000;2022-12-16T03:34:18;7.28;;;4.43;;
48777;SDS011;34578;0.000;0.000;2022-12-16T03:39:26;6.63;;;4.80;;
48777;SDS011;34578;0.000;0.000;2022-12-16T03:44:27;5.65;;;4.57;;
48777;SDS011;34578;0.000;0.000;2022-12-16T03:49:29;8.93;;;5.68;;
48777;SDS011;34578;0.000;0.000;2022-12-16T03:54:29;5.60;;;4.55;;
48777;SDS011;34578;0.000;0.000;2022-12-16T03:59:30;5.63;;;4.32;;
48777;SDS011;34578;0.000;0.000;2022-12-16T04:04:30;6.67;;;4.67;;
48777;SDS011;34578;0.000;0.000;2022-12-16T04:09:30;5.23;;;4.33;;
48777;SDS011;34578;0.000;0.000;2022-12-16T04:14:31;6.03;;;4.90;;
48777;SDS011;34578;0.000;0.000;2022-12-16T04:19:50;5.25;;;4.35;;
48777;SDS011;34578;0.000;0.000;2022-12-16T04:25:09;6.60;;;5.22;;
48777;SDS011;34578;0.000;0.000;2022-12-16T04:30:18;5.25;;;4.53;;
48777;SDS011;34578;0.000;0.000;2022-12-16T04:35:19;5.97;;;4.75;;
48777;SDS011;34578;0.000;0.000;2022-12-16T04:40:38;5.55;;;4.75;;
48777;SDS011;34578;0.000;0.000;2022-12-16T04:45:57;6.10;;;4.55;;
48777;SDS011;34578;0.000;0.000;2022-12-16T04:51:16;4.82;;;4.18;;
48777;SDS011;34578;0.000;0.000;2022-12-16T04:56:39;6.13;;;4.95;;
48777;SDS011;34578;0.000;0.000;2022-12-16T05:01:58;6.88;;;4.43;;
48777;SDS011;34578;0.000;0.000;2022-12-16T05:07:16;4.88;;;4.13;;
48777;SDS011;34578;0.000;0.000;2022-12-16T05:12:35;6.68;;;4.35;;
48777;SDS011;34578;0.000;0.000;2022-12-16T05:17:54;4.90;;;4.40;;
48777;SDS011;34578;0.000;0.000;2022-12-16T05:23:13;4.97;;;4.40;;
48777;SDS011;34578;0.000;0.000;2022-12-16T05:28:32;7.97;;;5.10;;
48777;SDS011;34578;0.000;0.000;2022-12-16T05:33:50;7.82;;;4.90;;
48777;SDS011;34578;0.000;0.000;2022-12-16T05:39:09;6.47;;;4.55;;
48777;SDS011;34578;0.000;0.000;2022-12-16T05:44:29;5.57;;;4.88;;
48777;SDS011;34578;0.000;0.000;2022-12-16T05:49:47;7.93;;;4.68;;
48777;SDS011;34578;0.000;0.000;2022-12-16T05:55:06;5.85;;;4.53;;
48777;SDS011;34578;0.000;0.000;2022-12-16T06:00:25;11.20;;;5.07;;
48777;SDS011;34578;0.000;0.000;2022-12-16T06:05:45;10.63;;;5.13;;
48777;SDS011;34578;0.000;0.000;2022-12-16T06:11:04;12.85;;;6.85;;
48777;SDS011;34578;0.000;0.000;2022-12-16T06:16:23;8.88;;;6.25;;
48777;SDS011;34578;0.000;0.000;2022-12-16T06:21:42;19.77;;;8.15;;
48777;SDS011;34578;0.000;0.000;2022-12-16T06:27:05;18.17;;;9.25;;
48777;SDS011;34578;0.000;0.000;2022-12-16T06:32:24;19.40;;;10.75;;
48777;SDS011;34578;0.000;0.000;2022-12-16T06:37:46;29.63;;;16.23;;
48777;SDS011;34578;0.000;0.000;2022-12-16T06:43:05;28.83;;;15.30;;
48777;SDS011;34578;0.000;0.000;2022-12-16T06:48:25;32.03;;;17.85;;
48777;SDS011;34578;0.000;0.000;2022-12-16T06:53:44;45.40;;;19.80;;
48777;SDS011;34578;0.000;0.000;2022-12-16T06:59:02;43.45;;;20.42;;
48777;SDS011;34578;0.000;0.000;2022-12-16T07:04:21;41.53;;;19.55;;
48777;SDS011;34578;0.000;0.000;2022-12-16T07:09:40;31.90;;;17.48;;
48777;SDS011;34578;0.000;0.000;2022-12-16T07:14:59;37.35;;;17.90;;
48777;SDS011;34578;0.000;0.000;2022-12-16T07:20:18;35.03;;;18.40;;
48777;SDS011;34578;0.000;0.000;2022-12-16T07:25:37;29.92;;;17.23;;
48777;SDS011;34578;0.000;0.000;2022-12-16T07:30:56;31.00;;;17.38;;
48777;SDS011;34578;0.000;0.000;2022-12-16T07:36:14;31.73;;;16.60;;
48777;SDS011;34578;0.000;0.000;2022-12-16T07:41:34;27.73;;;16.20;;
48777;SDS011;34578;0.000;0.000;2022-12-16T07:46:53;28.75;;;15.40;;
48777;SDS011;34578;0.000;0.000;2022-12-16T07:52:12;27.98;;;15.57;;
48777;SDS011;34578;0.000;0.000;2022-12-16T07:57:31;23.58;;;13.82;;
48777;SDS011;34578;0.000;0.000;2022-12-16T08:02:53;28.67;;;16.00;;
48777;SDS011;34578;0.000;0.000;2022-12-16T08:08:12;26.17;;;13.95;;
48777;SDS011;34578;0.000;0.000;2022-12-16T08:13:31;24.75;;;13.70;;
48777;SDS011;34578;0.000;0.000;2022-12-16T08:18:50;25.40;;;14.10;;
48777;SDS011;34578;0.000;0.000;2022-12-16T08:24:08;26.23;;;13.63;;
48777;SDS011;34578;0.000;0.000;2022-12-16T08:29:27;23.63;;;13.35;;
48777;SDS011;34578;0.000;0.000;2022-12-16T08:34:47;26.38;;;12.80;;
48777;SDS011;34578;0.000;0.000;2022-12-16T08:40:16;24.27;;;13.70;;
48777;SDS011;34578;0.000;0.000;2022-12-16T08:45:36;25.63;;;13.10;;
48777;SDS011;34578;0.000;0.000;2022-12-16T08:50:55;21.38;;;12.13;;
48777;SDS011;34578;0.000;0.000;2022-12-16T08:56:14;20.48;;;12.75;;
48777;SDS011;34578;0.000;0.000;2022-12-16T09:01:33;22.40;;;12.90;;
48777;SDS011;34578;0.000;0.000;2022-12-16T09:06:52;21.23;;;12.07;;
48777;SDS011;34578;0.000;0.000;2022-12-16T09:12:10;19.33;;;11.57;;
48777;SDS011;34578;0.000;0.000;2022-12-16T09:17:29;22.27;;;12.38;;
48777;SDS011;34578;0.000;0.000;2022-12-16T09:22:48;18.05;;;10.93;;
48777;SDS011;34578;0.000;0.000;2022-12-16T09:28:07;15.95;;;10.35;;
48777;SDS011;34578;0.000;0.000;2022-12-16T09:33:26;17.88;;;10.60;;
48777;SDS011;34578;0.000;0.000;2022-12-16T09:38:44;17.90;;;11.40;;
48777;SDS011;34578;0.000;0.000;2022-12-16T09:44:07;17.83;;;12.32;;
48777;SDS011;34578;0.000;0.000;2022-12-16T09:49:47;19.85;;;11.40;;
48777;SDS011;34578;0.000;0.000;2022-12-16T09:55:15;17.00;;;10.77;;
48777;SDS011;34578;0.000;0.000;2022-12-16T10:00:39;18.30;;;11.23;;
48777;SDS011;34578;0.000;0.000;2022-12-16T10:06:07;17.02;;;11.18;;
48777;SDS011;34578;0.000;0.000;2022-12-16T10:17:21;17.13;;;11.18;;
48777;SDS011;34578;0.000;0.000;2022-12-16T10:22:43;14.18;;;9.18;;
48777;SDS011;34578;0.000;0.000;2022-12-16T10:28:14;14.15;;;9.43;;
48777;SDS011;34578;0.000;0.000;2022-12-16T10:33:33;13.98;;;10.13;;
48777;SDS011;34578;0.000;0.000;2022-12-16T10:38:54;15.00;;;9.48;;
48777;SDS011;34578;0.000;0.000;2022-12-16T10:44:21;12.93;;;9.07;;
48777;SDS011;34578;0.000;0.000;2022-12-16T10:49:59;14.35;;;9.90;;
48777;SDS011;34578;0.000;0.000;2022-12-16T10:55:26;11.88;;;8.70;;
48777;SDS011;34578;0.000;0.000;2022-12-16T11:06:36;14.68;;;9.85;;
48777;SDS011;34578;0.000;0.000;2022-12-16T11:12:42;12.88;;;9.40;;
48777;SDS011;34578;0.000;0.000;2022-12-16T11:17:40;13.95;;;9.55;;
48777;SDS011;34578;0.000;0.000;2022-12-16T11:23:20;15.93;;;9.55;;
48777;SDS011;34578;0.000;0.000;2022-12-16T11:28:41;16.38;;;10.48;;
48777;SDS011;34578;0.000;0.000;2022-12-16T11:34:17;14.60;;;10.20;;
48777;SDS011;34578;0.000;0.000;2022-12-16T11:39:35;15.05;;;10.68;;
48777;SDS011;34578;0.000;0.000;2022-12-16T11:44:56;17.17;;;10.15;;
48777;SDS011;34578;0.000;0.000;2022-12-16T11:50:18;13.23;;;9.48;;
48777;SDS011;34578;0.000;0.000;2022-12-16T11:55:38;15.57;;;9.80;;
48777;SDS011;34578;0.000;0.000;2022-12-16T12:01:22;14.95;;;9.75;;
48777;SDS011;34578;0.000;0.000;2022-12-16T12:06:52;15.35;;;9.65;;
48777;SDS011;34578;0.000;0.000;2022-12-16T12:23:20;14.02;;;9.90;;
48777;SDS011;34578;0.000;0.000;2022-12-16T12:28:58;11.55;;;8.90;;
48777;SDS011;34578;0.000;0.000;2022-12-16T12:39:57;11.15;;;9.25;;
48777;SDS011;34578;0.000;0.000;2022-12-16T12:57:43;12.85;;;8.98;;
48777;SDS011;34578;0.000;0.000;2022-12-16T13:13:54;13.15;;;9.48;;
48777;SDS011;34578;0.000;0.000;2022-12-16T13:24:48;11.88;;;8.88;;
48777;SDS011;34578;0.000;0.000;2022-12-16T13:35:27;11.55;;;8.32;;
48777;SDS011;34578;0.000;0.000;2022-12-16T13:40:53;10.48;;;8.40;;
48777;SDS011;34578;0.000;0.000;2022-12-16T13:46:15;9.52;;;8.48;;
48777;SDS011;34578;0.000;0.000;2022-12-16T13:56:56;18.02;;;14.35;;
48777;SDS011;34578;0.000;0.000;2022-12-16T14:02:30;16.05;;;10.75;;
48777;SDS011;34578;0.000;0.000;2022-12-16T14:07:53;13.90;;;9.82;;
48777;SDS011;34578;0.000;0.000;2022-12-16T14:24:34;16.80;;;10.93;;
48777;SDS011;34578;0.000;0.000;2022-12-16T14:29:56;16.27;;;12.35;;
48777;SDS011;34578;0.000;0.000;2022-12-16T14:35:23;22.98;;;17.52;;
48777;SDS011;34578;0.000;0.000;2022-12-16T14:40:43;24.90;;;16.05;;
48777;SDS011;34578;0.000;0.000;2022-12-16T14:46:28;20.17;;;13.70;;
48777;SDS011;34578;0.000;0.000;2022-12-16T14:51:48;22.08;;;13.48;;
48777;SDS011;34578;0.000;0.000;2022-12-16T14:57:14;18.23;;;12.18;;
48777;SDS011;34578;0.000;0.000;2022-12-16T15:02:39;15.75;;;11.80;;
48777;SDS011;34578;0.000;0.000;2022-12-16T15:08:04;16.77;;;11.90;;
48777;SDS011;34578;0.000;0.000;2022-12-16T15:13:24;15.45;;;11.10;;
48777;SDS011;34578;0.000;0.000;2022-12-16T15:18:44;15.30;;;10.93;;
48777;SDS011;34578;0.000;0.000;2022-12-16T15:24:21;12.85;;;10.35;;
48777;SDS011;34578;0.000;0.000;2022-12-16T15:29:42;17.95;;;12.57;;
48777;SDS011;34578;0.000;0.000;2022-12-16T15:35:01;14.20;;;11.48;;
48777;SDS011;34578;0.000;0.000;2022-12-16T15:40:24;18.63;;;13.15;;
48777;SDS011;34578;0.000;0.000;2022-12-16T15:45:49;17.67;;;11.82;;
48777;SDS011;34578;0.000;0.000;2022-12-16T15:56:43;14.30;;;10.68;;
48777;SDS011;34578;0.000;0.000;2022-12-16T16:02:04;15.82;;;10.50;;
48777;SDS011;34578;0.000;0.000;2022-12-16T16:07:27;14.32;;;10.73;;
48777;SDS011;34578;0.000;0.000;2022-12-16T16:12:46;13.63;;;10.52;;
48777;SDS011;34578;0.000;0.000;2022-12-16T16:18:05;13.98;;;10.88;;
48777;SDS011;34578;0.000;0.000;2022-12-16T16:23:28;14.25;;;11.25;;
48777;SDS011;34578;0.000;0.000;2022-12-16T16:28:47;12.38;;;9.70;;
48777;SDS011;34578;0.000;0.000;2022-12-16T16:34:06;12.52;;;9.35;;
48777;SDS011;34578;0.000;0.000;2022-12-16T16:39:25;13.52;;;9.98;;
48777;SDS011;34578;0.000;0.000;2022-12-16T16:44:44;12.63;;;9.90;;
48777;SDS011;34578;0.000;0.000;2022-12-16T16:50:02;14.10;;;9.57;;
48777;SDS011;34578;0.000;0.000;2022-12-16T16:55:22;15.48;;;9.07;;
48777;SDS011;34578;0.000;0.000;2022-12-16T17:00:42;15.68;;;9.82;;
48777;SDS011;34578;0.000;0.000;2022-12-16T17:06:01;15.45;;;10.38;;
48777;SDS011;34578;0.000;0.000;2022-12-16T17:11:20;12.70;;;9.57;;
48777;SDS011;34578;0.000;0.000;2022-12-16T17:16:40;16.85;;;10.63;;
48777;SDS011;34578;0.000;0.000;2022-12-16T17:21:59;12.43;;;9.98;;
48777;SDS011;34578;0.000;0.000;2022-12-16T17:27:19;16.33;;;9.82;;
48777;SDS011;34578;0.000;0.000;2022-12-16T17:32:40;14.85;;;10.60;;
48777;SDS011;34578;0.000;0.000;2022-12-16T17:37:59;17.13;;;11.00;;
48777;SDS011;34578;0.000;0.000;2022-12-16T17:43:18;13.57;;;9.82;;
48777;SDS011;34578;0.000;0.000;2022-12-16T17:48:37;12.77;;;9.48;;
48777;SDS011;34578;0.000;0.000;2022-12-16T17:53:55;18.85;;;10.98;;
48777;SDS011;34578;0.000;0.000;2022-12-16T17:59:14;14.10;;;9.68;;
48777;SDS011;34578;0.000;0.000;2022-12-16T18:04:33;12.70;;;9.30;;
48777;SDS011;34578;0.000;0.000;2022-12-16T18:09:52;18.88;;;11.55;;
48777;SDS011;34578;0.000;0.000;2022-12-16T18:15:10;14.30;;;9.55;;
48777;SDS011;34578;0.000;0.000;2022-12-16T18:20:29;16.63;;;10.38;;
48777;SDS011;34578;0.000;0.000;2022-12-16T18:25:58;16.23;;;10.10;;
48777;SDS011;34578;0.000;0.000;2022-12-16T18:31:18;15.65;;;10.20;;
48777;SDS011;34578;0.000;0.000;2022-12-16T18:36:37;14.52;;;9.77;;
48777;SDS011;34578;0.000;0.000;2022-12-16T18:41:56;15.35;;;10.65;;
48777;SDS011;34578;0.000;0.000;2022-12-16T18:47:15;18.92;;;9.73;;
48777;SDS011;34578;0.000;0.000;2022-12-16T18:52:34;17.95;;;9.60;;
48777;SDS011;34578;0.000;0.000;2022-12-16T18:57:53;19.05;;;10.18;;
48777;SDS011;34578;0.000;0.000;2022-12-16T19:03:12;39.05;;;12.15;;
48777;SDS011;34578;0.000;0.000;2022-12-16T19:08:31;21.83;;;11.20;;
48777;SDS011;34578;0.000;0.000;2022-12-16T19:13:49;21.60;;;11.05;;
48777;SDS011;34578;0.000;0.000;2022-12-16T19:19:08;15.27;;;10.70;;
48777;SDS011;34578;0.000;0.000;2022-12-16T19:24:27;15.95;;;10.18;;
48777;SDS011;34578;0.000;0.000;2022-12-16T19:29:46;17.17;;;10.73;;
48777;SDS011;34578;0.000;0.000;2022-12-16T19:35:04;17.63;;;9.20;;
48777;SDS011;34578;0.000;0.000;2022-12-16T19:40:24;15.45;;;10.10;;
48777;SDS011;34578;0.000;0.000;2022-12-16T19:45:42;11.65;;;9.20;;
48777;SDS011;34578;0.000;0.000;2022-12-16T19:51:02;14.48;;;8.85;;
48777;SDS011;34578;0.000;0.000;2022-12-16T19:56:21;11.38;;;9.30;;
48777;SDS011;34578;0.000;0.000;2022-12-16T20:01:39;14.80;;;8.98;;
48777;SDS011;34578;0.000;0.000;2022-12-16T20:06:58;13.32;;;9.20;;
48777;SDS011;34578;0.000;0.000;2022-12-16T20:12:17;15.52;;;9.40;;
48777;SDS011;34578;0.000;0.000;2022-12-16T20:17:36;11.93;;;8.93;;
48777;SDS011;34578;0.000;0.000;2022-12-16T20:22:55;10.68;;;8.45;;
48777;SDS011;34578;0.000;0.000;2022-12-16T20:28:14;11.32;;;8.95;;
48777;SDS011;34578;0.000;0.000;2022-12-16T20:33:33;9.40;;;7.43;;
48777;SDS011;34578;0.000;0.000;2022-12-16T20:38:52;13.55;;;8.45;;
48777;SDS011;34578;0.000;0.000;2022-12-16T20:44:11;9.88;;;8.02;;
48777;SDS011;34578;0.000;0.000;2022-12-16T20:49:30;9.70;;;7.32;;
48777;SDS011;34578;0.000;0.000;2022-12-16T20:54:49;10.23;;;6.65;;
48777;SDS011;34578;0.000;0.000;2022-12-16T21:00:08;12.00;;;6.60;;
48777;SDS011;34578;0.000;0.000;2022-12-16T21:05:27;13.65;;;7.15;;
48777;SDS011;34578;0.000;0.000;2022-12-16T21:10:47;9.00;;;6.65;;
48777;SDS011;34578;0.000;0.000;2022-12-16T21:16:06;7.90;;;6.57;;
48777;SDS011;34578;0.000;0.000;2022-12-16T21:21:25;9.85;;;6.88;;
48777;SDS011;34578;0.000;0.000;2022-12-16T21:26:44;10.48;;;6.57;;
48777;SDS011;34578;0.000;0.000;2022-12-16T21:32:22;8.95;;;6.40;;
48777;SDS011;34578;0.000;0.000;2022-12-16T21:37:41;8.15;;;6.10;;
48777;SDS011;34578;0.000;0.000;2022-12-16T21:43:00;8.43;;;6.63;;
48777;SDS011;34578;0.000;0.000;2022-12-16T21:48:19;10.70;;;6.97;;
48777;SDS011;34578;0.000;0.000;2022-12-16T21:53:38;9.75;;;6.22;;
48777;SDS011;34578;0.000;0.000;2022-12-16T21:58:57;9.48;;;5.85;;
48777;SDS011;34578;0.000;0.000;2022-12-16T22:04:15;8.57;;;5.68;;
48777;SDS011;34578;0.000;0.000;2022-12-16T22:09:34;9.18;;;6.20;;
48777;SDS011;34578;0.000;0.000;2022-12-16T22:14:53;12.38;;;6.00;;
48777;SDS011;34578;0.000;0.000;2022-12-16T22:20:12;9.15;;;6.30;;
48777;SDS011;34578;0.000;0.000;2022-12-16T22:25:31;8.63;;;5.53;;
48777;SDS011;34578;0.000;0.000;2022-12-16T22:30:53;7.53;;;5.43;;
48777;SDS011;34578;0.000;0.000;2022-12-16T22:36:13;11.35;;;5.78;;
48777;SDS011;34578;0.000;0.000;2022-12-16T22:41:32;7.13;;;4.60;;
48777;SDS011;34578;0.000;0.000;2022-12-16T22:46:50;9.10;;;4.53;;
48777;SDS011;34578;0.000;0.000;2022-12-16T22:52:09;7.53;;;4.70;;
48777;SDS011;34578;0.000;0.000;2022-12-16T22:57:28;5.75;;;4.55;;
48777;SDS011;34578;0.000;0.000;2022-12-16T23:02:49;5.05;;;4.43;;
48777;SDS011;34578;0.000;0.000;2022-12-16T23:08:08;5.88;;;4.30;;
48777;SDS011;34578;0.000;0.000;2022-12-16T23:13:27;7.35;;;4.68;;
48777;SDS011;34578;0.000;0.000;2022-12-16T23:18:46;6.43;;;4.70;;
48777;SDS011;34578;0.000;0.000;2022-12-16T23:24:05;6.40;;;3.95;;
48777;SDS011;34578;0.000;0.000;2022-12-16T23:29:28;6.03;;;4.57;;
48777;SDS011;34578;0.000;0.000;2022-12-16T23:34:47;5.82;;;3.80;;
48777;SDS011;34578;0.000;0.000;2022-12-16T23:40:06;7.18;;;3.83;;
48777;SDS011;34578;0.000;0.000;2022-12-16T23:45:25;5.50;;;4.22;;
48777;SDS011;34578;0.000;0.000;2022-12-16T23:50:44;4.82;;;3.58;;
48777;SDS011;34578;0.000;0.000;2022-12-16T23:56:03;4.30;;;3.33;;
